[23rd January 2021 | 1700 - 2100z] CityTriangle between Prague (LKPR), Vienna (LOWW) and Munich (EDDM)

Zu Eventkalender hinzugefügt: 23.01.21

Samy Greve

874505
RG München - Event
RG München - NAV
RG München - Mentor


Das Jahr 2020 ist zu Ende und wir alle hoffen, dass ihr gut ins neue Jahr 2021 gekommen seid. Ein Neues Jahr bringt neue Ziele, Vorsätze und Ideen. Daher dachten wir uns zum Jahresanfang fangen wir gleich mit etwas Speziellem an. Wir dachten uns, dass ein normaler Shuttle nichts Besonderes wäre, warum also nicht mit einem Triangle?
Zusammen mit der vACC Czech Republic, vACC Austria undVATSIM Germany laden wir euch herzlich ein zum CITYTRIANGLE Event am Samstag, dem 23. Januar. Die Flughäfen Prague, Wien und München sind in dem Zeitraum von 1700 - 2100z mit allen Positionen besetzt. Die erwartete Flugzeit für alle drei Strecken beträgt ca. 2:10h, sodass ihr genug Zeit habt für einen
vernünftigen Turnaround und euren Maschinen wieder Startklar für das nächste Leg fertig zu machen. Wo ihr startet, ist egal - nehmt euren Lieblingsflieger und begleitet uns an diesem Samstag
beim Event. Wir hören uns auf der Frequenz!

----------------------------------------------------------------------------------------------------------------------------------------------------------------

The year 2020 has passed and we hope, that all of you had a pleasant touchdown into 2021. A new year brings also new resolutions, intentions and ideas with it. To come up with something special for the start of the year, we thought a normal city shuttle would be too linear, why not go for a triangle? Therefore the vACC Czech Republic, vACC Austria and VATSIM Germany invite you greatly for our CITYTRIANGLE Event on Saturday, the 23rd of January. Prague, Vienna and Munich will be fully staffed starting from 1700z until 2100z, providing you huge ATC coverage over western Europe. The approximately on route time for all three legs is only 2:10, which should give you enough time to turnaround twice and see all of the participating locations. Where you start doesn't matter - just hop in your aircraft and join us on VATSIM. We are looking forward to hear you on frequency.

Please take some time before the event and check out the pilot briefing of the three airports:



Of course we provide you also with the according charts:



Looking for routes? We got you covered:

MUC-VIE

max. F290 ROTAX L603 LATLO DCT OBEDI DCT ABTAN

VIE-MUC
max. F280 SOVIL DCT SITNI DCT BAGSI DCT MATIG DCT AMADI Q113 NAPSA

PRG-VIE
max. F170 VOZ DCT LANUX

VIE-PRG
max. F180 LANUX DCT TABEM Z401 VLM

PRG-MUC
max. F240 DOBEN T136 NIRGO T108 ARBAX

MUC-PRG
max. F230 ANKER Y104 MAMOR L132 AGNAV P733 LOMKI
 
Zuletzt bearbeitet:

Samy Greve

874505
RG München - Event
RG München - NAV
RG München - Mentor

In weniger 7 Stunden ist es soweit! Mehr als 40 (!) Controller erwarten euch heute Abend auf dem Triangle Event zwischen Prag, Wien und München! Mehr ATC Abdeckung ist da schon wirklich schwer!

Jede Division hat sich speziell Gedanken gemacht, wie wir euch heute Abend einen gelungenen Abend bieten können ohne viele Staus und Komplikationen. (Bitte benutzt die vorgeschlagenen Routen!)

Frau Holle hat natürlich auch gefragt ob sie dabei sein kann: In Kombination mit dem Wind könnte das doch sehr spannend werden heute Abend :cool:

LOWW 230815Z 2309/2415 28012G25KT 9999 BKN030 TX08/2309Z TN01/2407Z TEMPO 2309/2312 SHRA TEMPO 2312/2319 32006KT -RA FM231900 32004KT 9000 -RA BKN015 BECMG 2323/2401 2500 -SN FEW003 BKN010 TEMPO 2405/2408 VRB02KT 1500 BCFG BKN003 BECMG 2408/2410 6000 NSW FEW010 SCT050 FM241100 29012KT CAVOK
LKPR 230500Z 2306/2412 VRB02KT 7000 OVC011 TEMPO 2306/2309 4000 -RA BKN004 BECMG 2309/2310 23012KT OVC015 TEMPO 2310/2313 25012G22KT 2500 -RASN BKN011 PROB30 TEMPO 2310/2313 1200 SN BKN004 BECMG 2313/2315 21005KT 9999 BKN022 TEMPO 2320/2406 4000 BR SCT004 PROB30 TEMPO 2322/2406 1700 BR BKN004 TEMPO 2406/2411 2500 -SN BR BKN007
EDDM 230500Z 2306/2412 26015G30KT 4500 -SN BKN008 BKN020 TEMPO 2306/2308 27020G35KT 1200 SN BKN004 BECMG 2308/2311 25008KT 9999 BKN020 BECMG 2314/2317 12004KT PROB30 TEMPO 2401/2409 4000 SHSN BKN020TCU BECMG 2402/2405 24015G25KT

Wir freuen uns auf den gemeinsamen Abend - bis später!
 
Zuletzt bearbeitet:

Samy Greve

874505
RG München - Event
RG München - NAV
RG München - Mentor
In 20 Minuten geht es los - wer noch keine Idee hat was er heute Abend macht, der schaut am besten gleich vorbei :cool:
 
Zuletzt bearbeitet:
Oben